sensor_id;sensor_type;location;lat;lon;timestamp;pressure;altitude;pressure_sealevel;temperature;humidity
30516;BME280;17297;54.022;10.760;2023-09-19T00:00:19;100175.66;;;21.41;63.31
30516;BME280;17297;54.022;10.760;2023-09-19T00:02:51;100176.22;;;21.38;63.61
30516;BME280;17297;54.022;10.760;2023-09-19T00:05:16;100178.97;;;21.38;63.61
30516;BME280;17297;54.022;10.760;2023-09-19T00:07:42;100184.44;;;21.38;63.59
30516;BME280;17297;54.022;10.760;2023-09-19T00:10:08;100174.59;;;21.37;63.70
30516;BME280;17297;54.022;10.760;2023-09-19T00:12:35;100176.78;;;21.35;63.48
30516;BME280;17297;54.022;10.760;2023-09-19T00:15:00;100179.50;;;21.35;63.70
30516;BME280;17297;54.022;10.760;2023-09-19T00:17:27;100171.31;;;21.35;63.50
30516;BME280;17297;54.022;10.760;2023-09-19T00:19:55;100171.53;;;21.34;63.68
30516;BME280;17297;54.022;10.760;2023-09-19T00:22:21;100174.28;;;21.34;63.50
30516;BME280;17297;54.022;10.760;2023-09-19T00:24:46;100174.56;;;21.32;63.39
30516;BME280;17297;54.022;10.760;2023-09-19T00:27:11;100181.97;;;21.32;63.68
30516;BME280;17297;54.022;10.760;2023-09-19T00:29:37;100181.16;;;21.31;63.68
30516;BME280;17297;54.022;10.760;2023-09-19T00:32:02;100186.63;;;21.31;63.70
30516;BME280;17297;54.022;10.760;2023-09-19T00:34:30;100179.50;;;21.30;63.56
30516;BME280;17297;54.022;10.760;2023-09-19T00:36:56;100178.69;;;21.30;63.83
30516;BME280;17297;54.022;10.760;2023-09-19T00:39:21;100177.06;;;21.29;63.50
30516;BME280;17297;54.022;10.760;2023-09-19T00:41:47;100181.72;;;21.28;63.45
30516;BME280;17297;54.022;10.760;2023-09-19T00:44:12;100176.50;;;21.27;63.50
30516;BME280;17297;54.022;10.760;2023-09-19T00:46:39;100183.88;;;21.26;63.69
30516;BME280;17297;54.022;10.760;2023-09-19T00:49:04;100190.16;;;21.27;63.63
30516;BME280;17297;54.022;10.760;2023-09-19T00:51:34;100187.44;;;21.27;63.71
30516;BME280;17297;54.022;10.760;2023-09-19T00:54:02;100194.00;;;21.26;63.88
30516;BME280;17297;54.022;10.760;2023-09-19T00:56:28;100201.13;;;21.27;63.43
30516;BME280;17297;54.022;10.760;2023-09-19T00:58:53;100200.84;;;21.28;63.94
30516;BME280;17297;54.022;10.760;2023-09-19T01:01:18;100203.84;;;21.27;63.96
30516;BME280;17297;54.022;10.760;2023-09-19T01:03:44;100196.47;;;21.27;63.58
30516;BME280;17297;54.022;10.760;2023-09-19T01:06:11;100201.13;;;21.27;63.61
30516;BME280;17297;54.022;10.760;2023-09-19T01:08:38;100199.19;;;21.27;63.68
30516;BME280;17297;54.022;10.760;2023-09-19T01:11:11;100203.31;;;21.25;63.72
30516;BME280;17297;54.022;10.760;2023-09-19T01:14:05;100200.03;;;21.22;63.98
30516;BME280;17297;54.022;10.760;2023-09-19T01:28:20;100198.16;;;21.13;63.72
30516;BME280;17297;54.022;10.760;2023-09-19T01:30:58;100197.03;;;21.14;63.90
30516;BME280;17297;54.022;10.760;2023-09-19T01:33:26;100207.97;;;21.14;63.70
30516;BME280;17297;54.022;10.760;2023-09-19T01:35:52;100209.91;;;21.13;63.66
30516;BME280;17297;54.022;10.760;2023-09-19T01:38:19;100217.00;;;21.14;63.43
30516;BME280;17297;54.022;10.760;2023-09-19T01:41:00;100215.38;;;21.13;63.88
30516;BME280;17297;54.022;10.760;2023-09-19T01:43:42;100212.63;;;21.13;63.49
30516;BME280;17297;54.022;10.760;2023-09-19T01:46:15;100212.63;;;21.13;63.76
30516;BME280;17297;54.022;10.760;2023-09-19T01:48:53;100215.91;;;21.10;63.83
30516;BME280;17297;54.022;10.760;2023-09-19T01:51:31;100215.09;;;21.10;63.96
30516;BME280;17297;54.022;10.760;2023-09-19T01:54:03;100207.97;;;21.09;63.71
30516;BME280;17297;54.022;10.760;2023-09-19T01:56:48;100212.91;;;21.07;63.59
30516;BME280;17297;54.022;10.760;2023-09-19T01:59:25;100210.44;;;21.05;63.85
30516;BME280;17297;54.022;10.760;2023-09-19T02:01:54;100213.47;;;21.04;63.79
30516;BME280;17297;54.022;10.760;2023-09-19T02:04:20;100214.03;;;21.01;63.99
30516;BME280;17297;54.022;10.760;2023-09-19T02:06:45;100213.72;;;21.02;63.75
30516;BME280;17297;54.022;10.760;2023-09-19T02:09:14;100220.31;;;21.01;63.42
30516;BME280;17297;54.022;10.760;2023-09-19T02:11:40;100217.00;;;20.99;63.70
30516;BME280;17297;54.022;10.760;2023-09-19T02:14:06;100221.41;;;21.00;63.84
30516;BME280;17297;54.022;10.760;2023-09-19T02:16:33;100226.03;;;20.99;63.48
30516;BME280;17297;54.022;10.760;2023-09-19T02:18:59;100223.31;;;20.99;63.61
30516;BME280;17297;54.022;10.760;2023-09-19T02:21:25;100229.06;;;20.98;63.64
30516;BME280;17297;54.022;10.760;2023-09-19T02:23:50;100230.16;;;20.97;63.99
30516;BME280;17297;54.022;10.760;2023-09-19T02:26:16;100238.63;;;20.95;63.81
30516;BME280;17297;54.022;10.760;2023-09-19T02:28:44;100238.91;;;20.94;63.78
30516;BME280;17297;54.022;10.760;2023-09-19T02:31:11;100242.72;;;20.93;63.97
30516;BME280;17297;54.022;10.760;2023-09-19T02:33:36;100242.19;;;20.91;63.62
30516;BME280;17297;54.022;10.760;2023-09-19T02:36:02;100236.97;;;20.89;63.93
30516;BME280;17297;54.022;10.760;2023-09-19T02:38:30;100237.53;;;20.86;64.06
30516;BME280;17297;54.022;10.760;2023-09-19T02:40:56;100243.28;;;20.85;63.85
30516;BME280;17297;54.022;10.760;2023-09-19T02:43:22;100240.00;;;20.83;63.74
30516;BME280;17297;54.022;10.760;2023-09-19T02:45:48;100246.56;;;20.82;63.92
30516;BME280;17297;54.022;10.760;2023-09-19T02:48:19;100252.28;;;20.80;63.56
30516;BME280;17297;54.022;10.760;2023-09-19T02:50:48;100252.00;;;20.76;63.68
30516;BME280;17297;54.022;10.760;2023-09-19T02:53:14;100246.84;;;20.75;63.77
30516;BME280;17297;54.022;10.760;2023-09-19T02:55:40;100248.72;;;20.74;64.00
30516;BME280;17297;54.022;10.760;2023-09-19T02:58:06;100254.47;;;20.73;64.13
30516;BME280;17297;54.022;10.760;2023-09-19T03:00:37;100256.66;;;20.71;63.87
30516;BME280;17297;54.022;10.760;2023-09-19T03:03:02;100262.41;;;20.69;63.79
30516;BME280;17297;54.022;10.760;2023-09-19T03:05:28;100267.06;;;20.69;63.86
30516;BME280;17297;54.022;10.760;2023-09-19T03:07:56;100271.69;;;20.68;63.62
30516;BME280;17297;54.022;10.760;2023-09-19T03:10:22;100265.69;;;20.66;63.76
30516;BME280;17297;54.022;10.760;2023-09-19T03:12:50;100267.84;;;20.64;63.70
30516;BME280;17297;54.022;10.760;2023-09-19T03:15:16;100275.50;;;20.62;63.73
30516;BME280;17297;54.022;10.760;2023-09-19T03:17:45;100269.50;;;20.60;63.88
30516;BME280;17297;54.022;10.760;2023-09-19T03:20:11;100265.13;;;20.59;63.93
30516;BME280;17297;54.022;10.760;2023-09-19T03:25:04;100269.47;;;20.55;63.81
30516;BME280;17297;54.022;10.760;2023-09-19T03:27:38;100256.91;;;20.54;63.59
30516;BME280;17297;54.022;10.760;2023-09-19T03:30:05;100263.75;;;20.51;63.75
30516;BME280;17297;54.022;10.760;2023-09-19T03:32:37;100263.16;;;20.49;63.46
30516;BME280;17297;54.022;10.760;2023-09-19T03:35:08;100266.97;;;20.48;63.59
30516;BME280;17297;54.022;10.760;2023-09-19T03:37:36;100268.34;;;20.46;63.50
30516;BME280;17297;54.022;10.760;2023-09-19T03:40:02;100276.00;;;20.44;63.76
30516;BME280;17297;54.022;10.760;2023-09-19T03:42:31;100273.53;;;20.42;63.48
30516;BME280;17297;54.022;10.760;2023-09-19T03:44:56;100273.81;;;20.41;63.78
30516;BME280;17297;54.022;10.760;2023-09-19T03:47:22;100285.81;;;20.40;63.47
30516;BME280;17297;54.022;10.760;2023-09-19T03:49:48;100270.75;;;20.37;63.31
30516;BME280;17297;54.022;10.760;2023-09-19T03:52:13;100271.06;;;20.36;63.38
30516;BME280;17297;54.022;10.760;2023-09-19T03:54:41;100269.41;;;20.35;63.21
30516;BME280;17297;54.022;10.760;2023-09-19T03:57:06;100284.97;;;20.34;63.07
30516;BME280;17297;54.022;10.760;2023-09-19T03:59:32;100280.03;;;20.31;63.38
30516;BME280;17297;54.022;10.760;2023-09-19T04:02:00;100283.88;;;20.30;63.29
30516;BME280;17297;54.022;10.760;2023-09-19T04:04:25;100287.69;;;20.29;63.24
30516;BME280;17297;54.022;10.760;2023-09-19T04:06:51;100284.41;;;20.27;63.04
30516;BME280;17297;54.022;10.760;2023-09-19T04:09:17;100295.34;;;20.27;63.34
30516;BME280;17297;54.022;10.760;2023-09-19T04:11:43;100286.31;;;20.26;63.42
30516;BME280;17297;54.022;10.760;2023-09-19T04:14:08;100294.78;;;20.25;62.96
30516;BME280;17297;54.022;10.760;2023-09-19T04:16:34;100300.25;;;20.25;63.41
30516;BME280;17297;54.022;10.760;2023-09-19T04:18:59;100299.69;;;20.23;63.38
30516;BME280;17297;54.022;10.760;2023-09-19T04:21:25;100306.25;;;20.22;63.11
30516;BME280;17297;54.022;10.760;2023-09-19T04:23:51;100304.59;;;20.21;63.11
30516;BME280;17297;54.022;10.760;2023-09-19T04:26:17;100300.22;;;20.20;63.09
30516;BME280;17297;54.022;10.760;2023-09-19T04:28:42;100312.50;;;20.17;62.97
30516;BME280;17297;54.022;10.760;2023-09-19T04:31:09;100297.47;;;20.15;63.06
30516;BME280;17297;54.022;10.760;2023-09-19T04:33:35;100312.22;;;20.14;62.88
30516;BME280;17297;54.022;10.760;2023-09-19T04:36:01;100308.94;;;20.12;62.92
30516;BME280;17297;54.022;10.760;2023-09-19T04:38:30;100317.41;;;20.10;62.59
30516;BME280;17297;54.022;10.760;2023-09-19T04:40:58;100321.19;;;20.09;62.81
30516;BME280;17297;54.022;10.760;2023-09-19T04:43:24;100315.19;;;20.07;62.54
30516;BME280;17297;54.022;10.760;2023-09-19T04:45:49;100330.75;;;20.06;62.24
30516;BME280;17297;54.022;10.760;2023-09-19T04:48:16;100330.19;;;20.04;62.24
30516;BME280;17297;54.022;10.760;2023-09-19T04:50:41;100328.81;;;20.02;62.58
30516;BME280;17297;54.022;10.760;2023-09-19T04:53:06;100338.09;;;20.01;62.25
30516;BME280;17297;54.022;10.760;2023-09-19T04:55:32;100334.25;;;19.97;62.47
30516;BME280;17297;54.022;10.760;2023-09-19T04:57:58;100351.72;;;19.96;62.15
30516;BME280;17297;54.022;10.760;2023-09-19T05:00:23;100349.25;;;19.94;62.31
30516;BME280;17297;54.022;10.760;2023-09-19T05:02:55;100350.84;;;19.90;62.05
30516;BME280;17297;54.022;10.760;2023-09-19T05:05:21;100354.69;;;19.89;62.13
30516;BME280;17297;54.022;10.760;2023-09-19T05:07:48;100362.06;;;19.89;61.70
30516;BME280;17297;54.022;10.760;2023-09-19T05:10:14;100365.03;;;19.87;61.84
30516;BME280;17297;54.022;10.760;2023-09-19T05:12:40;100368.03;;;19.86;61.91
30516;BME280;17297;54.022;10.760;2023-09-19T05:15:08;100362.59;;;19.86;61.69
30516;BME280;17297;54.022;10.760;2023-09-19T05:17:34;100370.78;;;19.86;61.53
30516;BME280;17297;54.022;10.760;2023-09-19T05:20:00;100371.06;;;19.89;61.79
30516;BME280;17297;54.022;10.760;2023-09-19T05:22:50;100384.22;;;20.02;61.55
30516;BME280;17297;54.022;10.760;2023-09-19T05:25:15;100387.03;;;20.13;61.76
30516;BME280;17297;54.022;10.760;2023-09-19T05:27:43;100382.16;;;20.20;61.17
30516;BME280;17297;54.022;10.760;2023-09-19T05:30:09;100384.34;;;20.23;61.30
30516;BME280;17297;54.022;10.760;2023-09-19T05:32:35;100382.47;;;20.28;61.19
30516;BME280;17297;54.022;10.760;2023-09-19T05:35:00;100384.09;;;20.29;61.11
30516;BME280;17297;54.022;10.760;2023-09-19T05:37:26;100389.00;;;20.27;60.86
30516;BME280;17297;54.022;10.760;2023-09-19T05:39:51;100387.91;;;20.23;60.67
30516;BME280;17297;54.022;10.760;2023-09-19T05:42:18;100398.25;;;20.21;60.66
30516;BME280;17297;54.022;10.760;2023-09-19T05:44:43;100400.75;;;20.23;60.53
30516;BME280;17297;54.022;10.760;2023-09-19T05:47:09;100405.66;;;20.26;60.89
30516;BME280;17297;54.022;10.760;2023-09-19T05:49:35;100402.94;;;20.31;60.96
30516;BME280;17297;54.022;10.760;2023-09-19T05:52:05;100398.09;;;20.38;60.37
30516;BME280;17297;54.022;10.760;2023-09-19T05:54:30;100400.84;;;20.48;60.45
30516;BME280;17297;54.022;10.760;2023-09-19T05:56:55;100408.31;;;20.68;60.36
30516;BME280;17297;54.022;10.760;2023-09-19T05:59:23;100404.28;;;20.86;60.15
30516;BME280;17297;54.022;10.760;2023-09-19T06:01:48;100411.94;;;20.99;59.54
30516;BME280;17297;54.022;10.760;2023-09-19T06:04:13;100411.69;;;21.01;59.17
30516;BME280;17297;54.022;10.760;2023-09-19T06:06:38;100415.50;;;20.95;59.31
30516;BME280;17297;54.022;10.760;2023-09-19T06:09:06;100421.81;;;20.90;59.34
30516;BME280;17297;54.022;10.760;2023-09-19T06:11:33;100425.34;;;20.86;59.17
30516;BME280;17297;54.022;10.760;2023-09-19T06:14:03;100423.94;;;20.83;58.90
30516;BME280;17297;54.022;10.760;2023-09-19T06:16:29;100423.41;;;20.81;58.72
30516;BME280;17297;54.022;10.760;2023-09-19T06:18:55;100416.03;;;20.82;59.11
30516;BME280;17297;54.022;10.760;2023-09-19T06:21:23;100426.16;;;20.86;59.03
30516;BME280;17297;54.022;10.760;2023-09-19T06:23:49;100439.31;;;20.94;58.82
30516;BME280;17297;54.022;10.760;2023-09-19T06:26:14;100423.44;;;21.02;58.62
30516;BME280;17297;54.022;10.760;2023-09-19T06:28:40;100429.47;;;21.04;58.58
30516;BME280;17297;54.022;10.760;2023-09-19T06:31:06;100427.00;;;21.02;58.39
30516;BME280;17297;54.022;10.760;2023-09-19T06:33:35;100439.84;;;21.02;58.16
30516;BME280;17297;54.022;10.760;2023-09-19T06:36:04;100430.28;;;20.99;58.10
30516;BME280;17297;54.022;10.760;2023-09-19T06:38:30;100442.59;;;21.02;57.81
30516;BME280;17297;54.022;10.760;2023-09-19T06:40:58;100439.03;;;21.01;58.10
30516;BME280;17297;54.022;10.760;2023-09-19T06:43:26;100444.78;;;20.99;57.70
30516;BME280;17297;54.022;10.760;2023-09-19T06:45:52;100459.28;;;21.00;57.73
30516;BME280;17297;54.022;10.760;2023-09-19T06:48:20;100447.53;;;21.05;57.57
30516;BME280;17297;54.022;10.760;2023-09-19T06:50:46;100451.06;;;21.05;57.49
30516;BME280;17297;54.022;10.760;2023-09-19T06:53:13;100453.56;;;21.07;57.48
30516;BME280;17297;54.022;10.760;2023-09-19T06:55:39;100443.69;;;21.06;57.31
30516;BME280;17297;54.022;10.760;2023-09-19T06:58:04;100457.09;;;21.02;57.08
30516;BME280;17297;54.022;10.760;2023-09-19T07:00:31;100458.97;;;20.96;57.26
30516;BME280;17297;54.022;10.760;2023-09-19T07:03:06;100462.53;;;20.92;57.30
30516;BME280;17297;54.022;10.760;2023-09-19T07:05:37;100460.06;;;20.85;57.00
30516;BME280;17297;54.022;10.760;2023-09-19T07:08:04;100464.41;;;20.81;56.81
30516;BME280;17297;54.022;10.760;2023-09-19T07:10:30;100474.50;;;20.75;57.15
30516;BME280;17297;54.022;10.760;2023-09-19T07:13:05;100469.53;;;20.67;56.89
30516;BME280;17297;54.022;10.760;2023-09-19T07:15:34;100472.53;;;20.61;56.79
30516;BME280;17297;54.022;10.760;2023-09-19T07:18:02;100470.03;;;20.54;56.96
30516;BME280;17297;54.022;10.760;2023-09-19T07:20:27;100474.13;;;20.51;56.76
30516;BME280;17297;54.022;10.760;2023-09-19T07:22:56;100477.63;;;20.47;56.73
30516;BME280;17297;54.022;10.760;2023-09-19T07:25:25;100485.25;;;20.45;57.05
30516;BME280;17297;54.022;10.760;2023-09-19T07:27:50;100491.81;;;20.44;57.27
30516;BME280;17297;54.022;10.760;2023-09-19T07:30:16;100482.78;;;20.43;57.05
30516;BME280;17297;54.022;10.760;2023-09-19T07:32:42;100475.66;;;20.42;57.39
30516;BME280;17297;54.022;10.760;2023-09-19T07:35:08;100474.56;;;20.43;57.10
30516;BME280;17297;54.022;10.760;2023-09-19T07:37:34;100486.88;;;20.41;57.07
30516;BME280;17297;54.022;10.760;2023-09-19T07:40:00;100490.69;;;20.40;57.45
30516;BME280;17297;54.022;10.760;2023-09-19T07:42:35;100487.41;;;20.38;57.22
30516;BME280;17297;54.022;10.760;2023-09-19T07:45:06;100481.38;;;20.36;57.09
30516;BME280;17297;54.022;10.760;2023-09-19T07:47:33;100477.00;;;20.35;57.03
30516;BME280;17297;54.022;10.760;2023-09-19T07:49:59;100480.00;;;20.33;57.12
30516;BME280;17297;54.022;10.760;2023-09-19T07:52:26;100486.56;;;20.32;57.30
30516;BME280;17297;54.022;10.760;2023-09-19T07:54:53;100481.63;;;20.29;57.16
30516;BME280;17297;54.022;10.760;2023-09-19T07:57:18;100485.16;;;20.29;57.31
30516;BME280;17297;54.022;10.760;2023-09-19T07:59:45;100485.44;;;20.28;57.36
30516;BME280;17297;54.022;10.760;2023-09-19T08:02:12;100499.34;;;20.26;57.35
30516;BME280;17297;54.022;10.760;2023-09-19T08:04:44;100496.38;;;20.28;57.42
30516;BME280;17297;54.022;10.760;2023-09-19T08:07:11;100499.63;;;20.30;57.50
30516;BME280;17297;54.022;10.760;2023-09-19T08:09:36;100500.22;;;20.32;57.79
30516;BME280;17297;54.022;10.760;2023-09-19T08:12:04;100514.97;;;20.36;57.75
30516;BME280;17297;54.022;10.760;2023-09-19T08:14:29;100512.81;;;20.38;57.54
30516;BME280;17297;54.022;10.760;2023-09-19T08:16:58;100506.25;;;20.39;57.27
30516;BME280;17297;54.022;10.760;2023-09-19T08:19:26;100507.06;;;20.40;57.44
30516;BME280;17297;54.022;10.760;2023-09-19T08:21:57;100516.09;;;20.40;57.14
30516;BME280;17297;54.022;10.760;2023-09-19T08:24:29;100510.06;;;20.38;57.47
30516;BME280;17297;54.022;10.760;2023-09-19T08:26:55;100513.06;;;20.37;57.25
30516;BME280;17297;54.022;10.760;2023-09-19T08:29:22;100508.94;;;20.34;57.42
30516;BME280;17297;54.022;10.760;2023-09-19T08:31:54;100506.50;;;20.33;57.40
30516;BME280;17297;54.022;10.760;2023-09-19T08:34:19;100521.25;;;20.32;57.32
30516;BME280;17297;54.022;10.760;2023-09-19T08:36:44;100518.75;;;20.30;57.53
30516;BME280;17297;54.022;10.760;2023-09-19T08:39:10;100525.03;;;20.30;57.28
30516;BME280;17297;54.022;10.760;2023-09-19T08:41:36;100514.94;;;20.31;57.28
30516;BME280;17297;54.022;10.760;2023-09-19T08:44:02;100523.97;;;20.32;57.80
30516;BME280;17297;54.022;10.760;2023-09-19T08:46:30;100506.50;;;20.33;57.54
30516;BME280;17297;54.022;10.760;2023-09-19T08:49:04;100503.75;;;20.33;57.69
30516;BME280;17297;54.022;10.760;2023-09-19T08:51:43;100500.22;;;20.32;57.76
30516;BME280;17297;54.022;10.760;2023-09-19T08:54:32;100507.59;;;20.32;57.76
30516;BME280;17297;54.022;10.760;2023-09-19T08:57:06;100514.94;;;20.31;57.59
30516;BME280;17297;54.022;10.760;2023-09-19T08:59:38;100521.78;;;20.34;57.79
30516;BME280;17297;54.022;10.760;2023-09-19T09:02:10;100515.25;;;20.35;57.68
30516;BME280;17297;54.022;10.760;2023-09-19T09:04:39;100509.50;;;20.36;57.82
30516;BME280;17297;54.022;10.760;2023-09-19T09:07:10;100509.25;;;20.38;57.91
30516;BME280;17297;54.022;10.760;2023-09-19T09:09:35;100508.97;;;20.39;57.67
30516;BME280;17297;54.022;10.760;2023-09-19T09:12:02;100508.72;;;20.41;57.54
30516;BME280;17297;54.022;10.760;2023-09-19T09:14:28;100524.28;;;20.40;57.73
30516;BME280;17297;54.022;10.760;2023-09-19T09:16:55;100528.69;;;20.41;57.48
30516;BME280;17297;54.022;10.760;2023-09-19T09:19:24;100531.66;;;20.40;57.29
30516;BME280;17297;54.022;10.760;2023-09-19T09:21:51;100519.91;;;20.39;57.15
30516;BME280;17297;54.022;10.760;2023-09-19T09:26:58;100533.53;;;20.34;57.23
30516;BME280;17297;54.022;10.760;2023-09-19T09:29:49;100534.38;;;20.35;57.35
30516;BME280;17297;54.022;10.760;2023-09-19T09:32:27;100537.34;;;20.33;56.91
30516;BME280;17297;54.022;10.760;2023-09-19T09:34:58;100534.91;;;20.32;56.63
30516;BME280;17297;54.022;10.760;2023-09-19T09:37:25;100543.09;;;20.32;56.93
30516;BME280;17297;54.022;10.760;2023-09-19T09:40:01;100535.97;;;20.30;56.67
30516;BME280;17297;54.022;10.760;2023-09-19T09:42:39;100543.09;;;20.32;56.64
30516;BME280;17297;54.022;10.760;2023-09-19T09:47:43;100540.91;;;20.34;56.46
30516;BME280;17297;54.022;10.760;2023-09-19T09:50:23;100558.09;;;20.34;56.64
30516;BME280;17297;54.022;10.760;2023-09-19T09:52:54;100561.41;;;20.36;56.59
30516;BME280;17297;54.022;10.760;2023-09-19T09:55:26;100560.06;;;20.39;56.87
30516;BME280;17297;54.022;10.760;2023-09-19T09:58:17;100564.19;;;20.41;57.00
30516;BME280;17297;54.022;10.760;2023-09-19T10:00:56;100564.47;;;20.45;56.66
30516;BME280;17297;54.022;10.760;2023-09-19T10:03:30;100563.13;;;20.47;56.66
30516;BME280;17297;54.022;10.760;2023-09-19T10:05:57;100567.00;;;20.51;56.83
30516;BME280;17297;54.022;10.760;2023-09-19T10:08:23;100561.03;;;20.55;56.79
30516;BME280;17297;54.022;10.760;2023-09-19T10:10:51;100566.78;;;20.58;56.66
30516;BME280;17297;54.022;10.760;2023-09-19T10:13:29;100572.53;;;20.62;56.57
30516;BME280;17297;54.022;10.760;2023-09-19T10:15:58;100572.81;;;20.65;56.77
30516;BME280;17297;54.022;10.760;2023-09-19T10:18:30;100571.22;;;20.69;56.58
30516;BME280;17297;54.022;10.760;2023-09-19T10:20:59;100567.41;;;20.70;56.44
30516;BME280;17297;54.022;10.760;2023-09-19T10:23:27;100559.75;;;20.72;56.37
30516;BME280;17297;54.022;10.760;2023-09-19T10:25:56;100566.88;;;20.73;56.18
30516;BME280;17297;54.022;10.760;2023-09-19T10:28:23;100558.66;;;20.73;56.09
30516;BME280;17297;54.022;10.760;2023-09-19T10:30:51;100565.78;;;20.74;56.18
30516;BME280;17297;54.022;10.760;2023-09-19T10:33:18;100561.97;;;20.75;56.04
30516;BME280;17297;54.022;10.760;2023-09-19T10:35:47;100569.88;;;20.77;56.13
30516;BME280;17297;54.022;10.760;2023-09-19T10:38:15;100569.63;;;20.79;55.70
30516;BME280;17297;54.022;10.760;2023-09-19T10:40:42;100558.44;;;20.80;55.60
30516;BME280;17297;54.022;10.760;2023-09-19T10:43:15;100569.13;;;20.82;55.67
30516;BME280;17297;54.022;10.760;2023-09-19T10:45:44;100560.38;;;20.85;55.23
30516;BME280;17297;54.022;10.760;2023-09-19T10:48:09;100548.91;;;20.88;55.15
30516;BME280;17297;54.022;10.760;2023-09-19T10:51:09;100550.28;;;20.90;55.28
30516;BME280;17297;54.022;10.760;2023-09-19T10:53:55;100560.94;;;20.92;55.23
30516;BME280;17297;54.022;10.760;2023-09-19T10:56:36;100554.94;;;20.95;55.00
30516;BME280;17297;54.022;10.760;2023-09-19T10:59:07;100550.06;;;20.97;54.87
30516;BME280;17297;54.022;10.760;2023-09-19T11:02:15;100558.25;;;21.02;54.92
30516;BME280;17297;54.022;10.760;2023-09-19T11:04:42;100550.88;;;21.03;54.31
30516;BME280;17297;54.022;10.760;2023-09-19T11:07:12;100554.16;;;21.05;54.12
30516;BME280;17297;54.022;10.760;2023-09-19T11:15:03;100567.31;;;21.08;54.08
30516;BME280;17297;54.022;10.760;2023-09-19T11:17:34;100570.88;;;21.08;53.59
30516;BME280;17297;54.022;10.760;2023-09-19T11:30:49;100577.16;;;21.09;52.92
30516;BME280;17297;54.022;10.760;2023-09-19T11:33:22;100573.88;;;21.07;53.00
30516;BME280;17297;54.022;10.760;2023-09-19T11:36:08;100558.28;;;21.07;53.29
30516;BME280;17297;54.022;10.760;2023-09-19T11:46:21;100562.41;;;21.10;52.79
30516;BME280;17297;54.022;10.760;2023-09-19T11:48:51;100575.78;;;21.11;53.02
30516;BME280;17297;54.022;10.760;2023-09-19T11:51:21;100560.22;;;21.12;52.86
30516;BME280;17297;54.022;10.760;2023-09-19T11:53:57;100565.41;;;21.13;52.74
30516;BME280;17297;54.022;10.760;2023-09-19T11:56:26;100566.81;;;21.16;53.13
30516;BME280;17297;54.022;10.760;2023-09-19T11:58:57;100563.78;;;21.17;52.54
30516;BME280;17297;54.022;10.760;2023-09-19T12:01:33;100558.06;;;21.19;52.76
30516;BME280;17297;54.022;10.760;2023-09-19T12:04:01;100568.72;;;21.20;52.63
30516;BME280;17297;54.022;10.760;2023-09-19T12:06:28;100555.88;;;21.21;52.73
30516;BME280;17297;54.022;10.760;2023-09-19T12:09:00;100552.31;;;21.20;52.74
30516;BME280;17297;54.022;10.760;2023-09-19T12:11:30;100565.16;;;21.20;52.73
30516;BME280;17297;54.022;10.760;2023-09-19T12:13:59;100564.34;;;21.19;52.85
30516;BME280;17297;54.022;10.760;2023-09-19T12:16:26;100549.88;;;21.19;52.45
30516;BME280;17297;54.022;10.760;2023-09-19T12:18:55;100554.22;;;21.20;52.85
30516;BME280;17297;54.022;10.760;2023-09-19T12:21:27;100544.09;;;21.20;52.79
30516;BME280;17297;54.022;10.760;2023-09-19T12:26:30;100535.09;;;21.25;52.41
30516;BME280;17297;54.022;10.760;2023-09-19T12:28:59;100539.19;;;21.28;52.34
30516;BME280;17297;54.022;10.760;2023-09-19T12:31:26;100534.56;;;21.28;52.03
30516;BME280;17297;54.022;10.760;2023-09-19T12:33:54;100537.84;;;21.30;51.94
30516;BME280;17297;54.022;10.760;2023-09-19T12:36:21;100541.97;;;21.33;51.99
30516;BME280;17297;54.022;10.760;2023-09-19T12:38:57;100541.13;;;21.32;51.74
30516;BME280;17297;54.022;10.760;2023-09-19T12:41:25;100544.69;;;21.33;51.98
30516;BME280;17297;54.022;10.760;2023-09-19T12:43:54;100548.25;;;21.33;51.80
30516;BME280;17297;54.022;10.760;2023-09-19T12:46:21;100548.53;;;21.32;51.75
30516;BME280;17297;54.022;10.760;2023-09-19T12:49:16;100551.53;;;21.30;52.17
30516;BME280;17297;54.022;10.760;2023-09-19T12:51:48;100553.72;;;21.28;52.38
30516;BME280;17297;54.022;10.760;2023-09-19T12:54:15;100549.31;;;21.27;52.14
30516;BME280;17297;54.022;10.760;2023-09-19T12:56:43;100558.63;;;21.26;51.87
30516;BME280;17297;54.022;10.760;2023-09-19T12:59:14;100560.53;;;21.26;52.05
30516;BME280;17297;54.022;10.760;2023-09-19T13:01:41;100554.25;;;21.25;51.96
30516;BME280;17297;54.022;10.760;2023-09-19T13:04:20;100546.88;;;21.26;52.25
30516;BME280;17297;54.022;10.760;2023-09-19T13:06:52;100556.19;;;21.25;51.79
30516;BME280;17297;54.022;10.760;2023-09-19T13:09:19;100549.84;;;21.24;52.11
30516;BME280;17297;54.022;10.760;2023-09-19T13:11:46;100549.84;;;21.24;51.90
30516;BME280;17297;54.022;10.760;2023-09-19T13:14:29;100544.66;;;21.22;51.82
30516;BME280;17297;54.022;10.760;2023-09-19T13:22:38;100534.56;;;21.28;51.92
30516;BME280;17297;54.022;10.760;2023-09-19T13:25:16;100539.75;;;21.30;51.84
30516;BME280;17297;54.022;10.760;2023-09-19T13:27:55;100534.84;;;21.32;51.37
30516;BME280;17297;54.022;10.760;2023-09-19T13:30:24;100530.19;;;21.32;51.22
30516;BME280;17297;54.022;10.760;2023-09-19T13:32:51;100526.94;;;21.35;51.23
30516;BME280;17297;54.022;10.760;2023-09-19T13:35:18;100527.78;;;21.36;50.67
30516;BME280;17297;54.022;10.760;2023-09-19T13:37:43;100519.31;;;21.37;50.91
30516;BME280;17297;54.022;10.760;2023-09-19T13:40:13;100516.03;;;21.40;50.50